Time;durP1;ratioP1;P1;durP2;ratioP2;P2;SDS_P1;SDS_P2;PMS_P1;PMS_P2;Temp;Humidity;BMP_temperature;BMP_pressure;BME280_temperature;BME280_humidity;BME280_pressure;Samples;Min_cycle;Max_cycle;Signal;HPM_P1;HPM_P2
2021/10/26 00:00:13;;;;;;;15.73;13.83;;;;;21.70;100713.00;;;;2100997;28;20290;-52
2021/10/26 00:01:13;;;;;;;16.20;14.50;;;;;21.70;100717.00;;;;2101705;28;20220;-52
2021/10/26 00:02:14;;;;;;;16.87;14.47;;;;;21.80;100719.00;;;;2091929;28;20215;-52
2021/10/26 00:03:15;;;;;;;14.17;12.67;;;;;21.70;100718.00;;;;2101729;28;20204;-52
2021/10/26 00:04:15;;;;;;;15.33;13.83;;;;;21.70;100713.00;;;;2101322;28;20773;-51
2021/10/26 00:05:15;;;;;;;14.20;12.80;;;;;21.70;100727.00;;;;2102049;28;20473;-52
2021/10/26 00:06:16;;;;;;;16.77;13.17;;;;;21.70;100718.00;;;;2101798;28;20714;-52
2021/10/26 00:07:17;;;;;;;14.27;12.77;;;;;21.70;100719.00;;;;2102189;28;20227;-52
2021/10/26 00:08:17;;;;;;;15.63;14.02;;;;;21.70;100707.00;;;;2102307;28;20245;-52
2021/10/26 00:09:18;;;;;;;14.13;12.83;;;;;21.70;100714.00;;;;2101836;28;20684;-53
2021/10/26 00:10:18;;;;;;;15.10;13.50;;;;;21.70;100718.00;;;;2102349;28;20215;-52
2021/10/26 00:11:18;;;;;;;13.77;12.27;;;;;21.70;100719.00;;;;2101920;28;20257;-52
2021/10/26 00:12:19;;;;;;;13.27;11.87;;;;;21.70;100718.00;;;;2102225;28;20211;-52
2021/10/26 00:13:19;;;;;;;14.80;13.17;;;;;21.70;100723.00;;;;2101888;28;20211;-51
2021/10/26 00:14:20;;;;;;;14.03;12.10;;;;;21.70;100725.00;;;;2105342;28;20230;-52
2021/10/26 00:15:20;;;;;;;12.87;11.60;;;;;21.70;100721.00;;;;2110778;28;20219;-52
2021/10/26 00:16:20;;;;;;;14.67;11.97;;;;;21.70;100712.00;;;;2109531;28;20619;-51
2021/10/26 00:17:21;;;;;;;11.40;10.20;;;;;21.70;100720.00;;;;2101704;28;20295;-53
2021/10/26 00:18:21;;;;;;;13.27;11.93;;;;;21.70;100715.00;;;;2102027;28;20328;-53
2021/10/26 00:19:22;;;;;;;12.83;11.53;;;;;21.70;100715.00;;;;2101583;28;20196;-52
2021/10/26 00:20:22;;;;;;;13.10;11.80;;;;;21.70;100716.00;;;;2101871;28;20219;-53
2021/10/26 00:21:22;;;;;;;12.77;11.47;;;;;21.70;100713.00;;;;2104534;28;20219;-52
2021/10/26 00:22:23;;;;;;;11.90;10.77;;;;;21.70;100717.00;;;;2107589;28;20607;-52
2021/10/26 00:23:23;;;;;;;12.33;10.87;;;;;21.70;100720.00;;;;2110274;28;20218;-52
2021/10/26 00:24:23;;;;;;;12.37;10.70;;;;;21.70;100714.00;;;;2110018;28;20226;-52
2021/10/26 00:25:24;;;;;;;12.10;10.90;;;;;21.70;100716.00;;;;2110431;28;20219;-51
2021/10/26 00:26:24;;;;;;;12.27;10.97;;;;;21.70;100718.00;;;;2110450;28;20679;-52
2021/10/26 00:27:25;;;;;;;12.57;11.27;;;;;21.70;100715.00;;;;2110719;28;20211;-51
2021/10/26 00:28:25;;;;;;;12.03;10.80;;;;;21.70;100718.00;;;;2110075;28;20207;-52
2021/10/26 00:29:26;;;;;;;11.17;10.07;;;;;21.70;100717.00;;;;2109877;28;20235;-51
2021/10/26 00:30:26;;;;;;;11.57;10.37;;;;;21.70;100720.00;;;;2110380;28;20241;-52
2021/10/26 00:31:26;;;;;;;11.97;10.80;;;;;21.70;100721.00;;;;2110766;28;20214;-52
2021/10/26 00:32:27;;;;;;;11.87;10.50;;;;;21.70;100719.00;;;;2110949;28;20221;-52
2021/10/26 00:33:28;;;;;;;11.57;10.27;;;;;21.70;100717.00;;;;2110813;28;21074;-52
2021/10/26 00:34:28;;;;;;;10.43;9.32;;;;;21.70;100722.00;;;;2110639;28;20221;-52
2021/10/26 00:35:29;;;;;;;11.37;9.83;;;;;21.70;100720.00;;;;2110952;28;20215;-51
2021/10/26 00:36:30;;;;;;;10.70;9.60;;;;;21.70;100724.00;;;;2110912;28;20218;-53
2021/10/26 00:37:30;;;;;;;10.10;9.10;;;;;21.70;100716.00;;;;2104574;28;20207;-52
2021/10/26 00:38:31;;;;;;;10.87;9.77;;;;;21.70;100724.00;;;;2102290;28;20672;-52
2021/10/26 00:39:31;;;;;;;9.67;8.77;;;;;21.70;100721.00;;;;2101758;28;20223;-52
2021/10/26 00:40:31;;;;;;;9.73;8.60;;;;;21.70;100723.00;;;;2101826;28;20220;-52
2021/10/26 00:41:32;;;;;;;10.70;9.70;;;;;21.70;100726.00;;;;2101732;28;20299;-55
2021/10/26 00:42:33;;;;;;;11.23;9.30;;;;;21.70;100721.00;;;;2102506;28;20299;-52
2021/10/26 00:43:33;;;;;;;10.53;9.50;;;;;21.70;100724.00;;;;2100908;28;20684;-53
2021/10/26 00:44:34;;;;;;;10.30;9.23;;;;;21.70;100719.00;;;;2101480;28;20572;-52
2021/10/26 00:45:34;;;;;;;11.40;9.70;;;;;21.70;100726.00;;;;2101559;28;20214;-52
2021/10/26 00:46:35;;;;;;;9.73;8.70;;;;;21.60;100713.00;;;;2103785;28;20214;-52
2021/10/26 00:47:35;;;;;;;8.98;8.18;;;;;21.70;100719.00;;;;2101988;28;20564;-52
2021/10/26 00:48:36;;;;;;;9.23;8.33;;;;;21.60;100717.00;;;;2103222;28;20211;-53
2021/10/26 00:49:36;;;;;;;9.53;8.50;;;;;21.70;100714.00;;;;2105500;28;20568;-52
2021/10/26 00:50:37;;;;;;;9.73;8.83;;;;;21.70;100720.00;;;;2110445;28;20215;-52
2021/10/26 00:51:37;;;;;;;9.03;8.07;;;;;21.60;100717.00;;;;2109688;28;20215;-52
2021/10/26 00:52:37;;;;;;;9.40;8.40;;;;;21.60;100718.00;;;;2104622;28;20215;-51
2021/10/26 00:53:38;;;;;;;9.60;8.60;;;;;21.60;100716.00;;;;2105291;28;20220;-52
2021/10/26 00:54:38;;;;;;;9.10;8.20;;;;;21.60;100716.00;;;;2104887;28;20208;-52
2021/10/26 00:55:38;;;;;;;8.97;8.07;;;;;21.60;100716.00;;;;2104976;28;20218;-52
2021/10/26 00:56:39;;;;;;;8.67;7.50;;;;;21.60;100720.00;;;;2104949;28;21078;-52
2021/10/26 00:57:39;;;;;;;8.40;7.50;;;;;21.60;100723.00;;;;2105144;28;20831;-52
2021/10/26 00:58:40;;;;;;;8.47;7.67;;;;;21.60;100716.00;;;;2100998;28;20369;-53
2021/10/26 00:59:40;;;;;;;8.70;7.47;;;;;21.60;100718.00;;;;2096303;28;20243;-51
2021/10/26 01:00:40;;;;;;;8.43;7.63;;;;;21.60;100722.00;;;;2096613;28;20231;-52
2021/10/26 01:01:41;;;;;;;9.23;7.93;;;;;21.60;100722.00;;;;2095795;28;20250;-51
2021/10/26 01:02:44;;;;;;;7.83;7.03;;;;;21.60;100729.00;;;;2095349;28;20274;-51
2021/10/26 01:03:45;;;;;;;9.23;7.82;;;;;21.60;100727.00;;;;2096762;28;20212;-51
2021/10/26 01:04:46;;;;;;;7.80;7.00;;;;;21.60;100730.00;;;;2096468;28;20300;-51
2021/10/26 01:05:47;;;;;;;7.40;6.70;;;;;21.60;100720.00;;;;2095773;28;20427;-52
2021/10/26 01:06:47;;;;;;;8.27;7.33;;;;;21.60;100730.00;;;;2087423;28;20471;-52
2021/10/26 01:07:48;;;;;;;8.00;7.30;;;;;21.60;100726.00;;;;2079514;28;20214;-52
2021/10/26 01:08:48;;;;;;;7.60;6.90;;;;;21.60;100729.00;;;;2092454;28;20860;-51
2021/10/26 01:09:49;;;;;;;8.63;7.83;;;;;21.60;100727.00;;;;2096590;28;20204;-52
2021/10/26 01:10:51;;;;;;;8.03;7.27;;;;;21.60;100735.00;;;;2096672;28;20254;-51
2021/10/26 01:11:51;;;;;;;9.23;8.07;;;;;21.60;100736.00;;;;2096716;28;20212;-52
2021/10/26 01:12:52;;;;;;;8.97;6.90;;;;;21.60;100731.00;;;;2096426;28;20663;-52
2021/10/26 01:13:52;;;;;;;7.80;7.10;;;;;21.60;100735.00;;;;2087557;28;20260;-51
2021/10/26 01:14:53;;;;;;;7.60;6.80;;;;;21.60;100731.00;;;;2087302;28;20217;-52
2021/10/26 01:15:56;;;;;;;7.43;6.43;;;;;21.60;100735.00;;;;2087562;28;20209;-51
2021/10/26 01:17:07;;;;;;;7.13;6.43;;;;;21.60;100736.00;;;;2093073;28;20235;-52
2021/10/26 01:18:08;;;;;;;7.82;7.03;;;;;21.60;100728.00;;;;2095470;28;20577;-53
2021/10/26 01:19:09;;;;;;;6.82;6.05;;;;;21.60;100734.00;;;;2095252;28;20216;-52
2021/10/26 01:20:09;;;;;;;7.07;6.47;;;;;21.60;100737.00;;;;2095874;28;20224;-52
2021/10/26 01:21:10;;;;;;;7.03;6.40;;;;;21.60;100735.00;;;;2095908;28;20704;-52
2021/10/26 01:22:10;;;;;;;6.37;5.77;;;;;21.60;100730.00;;;;2096054;28;20270;-51
2021/10/26 01:23:11;;;;;;;6.90;6.20;;;;;21.60;100733.00;;;;2096045;28;20596;-53
2021/10/26 01:24:12;;;;;;;6.85;6.15;;;;;21.60;100725.00;;;;2095775;28;20212;-52
2021/10/26 01:25:13;;;;;;;7.17;6.40;;;;;21.60;100730.00;;;;2095855;28;20231;-52
2021/10/26 01:26:13;;;;;;;7.37;6.20;;;;;21.60;100732.00;;;;2096278;28;20289;-52
2021/10/26 01:27:14;;;;;;;7.03;6.37;;;;;21.60;100735.00;;;;2095693;28;20291;-52
2021/10/26 01:28:14;;;;;;;7.10;6.40;;;;;21.60;100732.00;;;;2095790;28;20205;-52
2021/10/26 01:29:15;;;;;;;8.20;6.40;;;;;21.60;100733.00;;;;2094949;28;20212;-52
2021/10/26 01:30:15;;;;;;;6.40;5.80;;;;;21.60;100737.00;;;;2096075;28;20357;-54
2021/10/26 01:31:16;;;;;;;6.60;5.83;;;;;21.60;100733.00;;;;2095811;28;20211;-52
2021/10/26 01:32:16;;;;;;;6.03;5.53;;;;;21.60;100740.00;;;;2096483;28;20453;-52
2021/10/26 01:33:17;;;;;;;6.33;5.77;;;;;21.60;100734.00;;;;2096581;28;20220;-52
2021/10/26 01:34:17;;;;;;;6.40;5.70;;;;;21.60;100734.00;;;;2096294;28;20708;-52
2021/10/26 01:35:17;;;;;;;6.60;6.00;;;;;21.60;100736.00;;;;2096298;28;20273;-54
2021/10/26 01:36:20;;;;;;;7.30;6.50;;;;;21.60;100732.00;;;;2096384;28;20235;-51
2021/10/26 01:37:20;;;;;;;6.68;5.80;;;;;21.50;100736.00;;;;2104242;28;20269;-52
2021/10/26 01:38:24;;;;;;;6.30;5.80;;;;;21.60;100741.00;;;;2104173;28;20216;-52
2021/10/26 01:39:24;;;;;;;7.40;5.93;;;;;21.60;100739.00;;;;2101061;28;20499;-51
2021/10/26 01:40:25;;;;;;;6.17;5.57;;;;;21.50;100733.00;;;;2095611;28;20212;-52
2021/10/26 01:41:25;;;;;;;5.73;5.20;;;;;21.60;100736.00;;;;2095975;28;20295;-52
2021/10/26 01:42:25;;;;;;;7.70;6.07;;;;;21.50;100739.00;;;;2096001;28;20685;-52
2021/10/26 01:43:26;;;;;;;6.27;5.67;;;;;21.60;100734.00;;;;2095488;28;20220;-51
2021/10/26 01:44:27;;;;;;;5.37;4.87;;;;;21.60;100735.00;;;;2096658;28;20223;-52
2021/10/26 01:45:28;;;;;;;5.55;4.95;;;;;21.50;100740.00;;;;2103602;28;20303;-52
2021/10/26 01:46:28;;;;;;;6.40;5.53;;;;;21.50;100739.00;;;;2102663;28;21000;-52
2021/10/26 01:47:28;;;;;;;6.07;5.43;;;;;21.50;100740.00;;;;2096373;28;20704;-53
2021/10/26 01:48:29;;;;;;;5.50;5.00;;;;;21.50;100742.00;;;;2096358;28;20833;-51
2021/10/26 01:49:29;;;;;;;5.97;5.37;;;;;21.50;100739.00;;;;2095272;28;20250;-52
2021/10/26 01:50:29;;;;;;;5.07;4.67;;;;;21.50;100740.00;;;;2095681;28;20216;-52
2021/10/26 01:51:30;;;;;;;6.17;5.57;;;;;21.50;100739.00;;;;2095929;28;20216;-52
2021/10/26 01:52:30;;;;;;;6.43;5.83;;;;;21.50;100744.00;;;;2100887;28;20253;-52
2021/10/26 01:53:30;;;;;;;8.00;5.80;;;;;21.50;100745.00;;;;2104602;28;20238;-52
2021/10/26 01:54:37;;;;;;;6.00;5.50;;;;;21.50;100753.00;;;;2104544;28;20688;-51
2021/10/26 01:55:38;;;;;;;6.30;5.65;;;;;21.50;100749.00;;;;2104670;28;20306;-52
2021/10/26 01:56:39;;;;;;;5.47;4.97;;;;;21.50;100752.00;;;;2104629;28;20238;-53
2021/10/26 01:57:40;;;;;;;5.80;5.22;;;;;21.50;100753.00;;;;2104849;28;20342;-52
2021/10/26 01:58:40;;;;;;;5.80;5.20;;;;;21.50;100747.00;;;;2103657;28;20684;-52
2021/10/26 01:59:40;;;;;;;5.70;5.20;;;;;21.50;100745.00;;;;2103597;28;20243;-52
2021/10/26 02:00:41;;;;;;;5.70;5.10;;;;;21.50;100747.00;;;;2104522;28;20215;-53
2021/10/26 02:01:41;;;;;;;5.77;5.17;;;;;21.50;100738.00;;;;2104396;28;20212;-51
2021/10/26 02:02:41;;;;;;;6.40;5.20;;;;;21.50;100739.00;;;;2103817;28;20222;-52
2021/10/26 02:03:42;;;;;;;5.10;4.70;;;;;21.50;100745.00;;;;2103170;28;20915;-52
2021/10/26 02:04:42;;;;;;;5.00;4.50;;;;;21.50;100735.00;;;;2103492;28;20216;-52
2021/10/26 02:05:42;;;;;;;5.70;5.20;;;;;21.50;100730.00;;;;2104153;28;20218;-52
2021/10/26 02:06:43;;;;;;;6.60;5.90;;;;;21.50;100736.00;;;;2104093;28;20211;-52
2021/10/26 02:07:44;;;;;;;7.67;5.20;;;;;21.50;100728.00;;;;2095139;28;20631;-53
2021/10/26 02:08:44;;;;;;;5.55;4.97;;;;;21.50;100734.00;;;;2095409;28;20224;-52
2021/10/26 02:09:45;;;;;;;6.10;4.97;;;;;21.50;100737.00;;;;2094619;28;20216;-52
2021/10/26 02:10:45;;;;;;;5.23;4.73;;;;;21.50;100729.00;;;;2095444;28;20701;-55
2021/10/26 02:11:46;;;;;;;5.20;4.70;;;;;21.50;100734.00;;;;2095364;28;20273;-55
2021/10/26 02:12:46;;;;;;;5.17;4.70;;;;;21.50;100733.00;;;;2095556;28;20227;-52
2021/10/26 02:13:47;;;;;;;5.40;4.90;;;;;21.50;100734.00;;;;2098695;28;20457;-51
2021/10/26 02:14:47;;;;;;;5.60;5.10;;;;;21.50;100730.00;;;;2103216;28;20557;-52
2021/10/26 02:15:48;;;;;;;5.23;4.67;;;;;21.50;100741.00;;;;2104131;28;20230;-52
2021/10/26 02:16:48;;;;;;;4.70;4.30;;;;;21.50;100684.00;;;;2099266;28;20327;-52
2021/10/26 02:17:49;;;;;;;5.30;4.80;;;;;21.50;100736.00;;;;2095975;28;20684;-52
2021/10/26 02:18:51;;;;;;;5.87;5.00;;;;;21.50;100730.00;;;;2095434;28;20204;-53
2021/10/26 02:19:52;;;;;;;6.32;5.13;;;;;21.50;100733.00;;;;2096229;28;20212;-53
2021/10/26 02:20:52;;;;;;;4.80;4.40;;;;;21.50;100729.00;;;;2095940;28;20212;-52
2021/10/26 02:21:53;;;;;;;6.03;4.90;;;;;21.50;100725.00;;;;2095926;28;20212;-52
2021/10/26 02:22:53;;;;;;;5.20;4.80;;;;;21.40;100734.00;;;;2095688;28;20295;-52
2021/10/26 02:23:53;;;;;;;5.77;5.17;;;;;21.50;100727.00;;;;2096003;28;20630;-51
2021/10/26 02:24:54;;;;;;;4.70;4.30;;;;;21.50;100725.00;;;;2094181;28;20216;-52
2021/10/26 02:25:54;;;;;;;5.03;4.60;;;;;21.50;100732.00;;;;2095986;28;20208;-51
2021/10/26 02:26:55;;;;;;;4.97;4.50;;;;;21.50;100743.00;;;;2095882;28;20212;-52
2021/10/26 02:27:55;;;;;;;4.60;4.20;;;;;21.50;100735.00;;;;2096077;28;20208;-52
2021/10/26 02:28:56;;;;;;;5.77;4.10;;;;;21.50;100735.00;;;;2102195;28;20207;-51
2021/10/26 02:29:56;;;;;;;4.80;4.30;;;;;21.40;100729.00;;;;2104169;28;20622;-52
2021/10/26 02:30:57;;;;;;;4.97;4.40;;;;;21.40;100737.00;;;;2104383;28;20211;-52
2021/10/26 02:31:57;;;;;;;5.00;4.40;;;;;21.40;100732.00;;;;2104280;28;20207;-52
2021/10/26 02:32:57;;;;;;;6.50;5.03;;;;;21.40;100730.00;;;;2095661;28;20253;-52
2021/10/26 02:33:58;;;;;;;5.43;4.37;;;;;21.50;100727.00;;;;2096003;28;20200;-52
2021/10/26 02:34:58;;;;;;;4.40;4.00;;;;;21.40;100735.00;;;;2095568;28;20246;-52
2021/10/26 02:35:59;;;;;;;5.07;4.57;;;;;21.40;100733.00;;;;2101874;28;20207;-52
2021/10/26 02:36:59;;;;;;;4.70;4.30;;;;;21.40;100732.00;;;;2104172;28;20215;-52
2021/10/26 02:38:00;;;;;;;4.20;3.90;;;;;21.40;100732.00;;;;2104392;28;20604;-51
2021/10/26 02:39:02;;;;;;;4.50;4.10;;;;;21.50;100733.00;;;;2103976;28;20208;-52
2021/10/26 02:40:04;;;;;;;5.15;4.57;;;;;21.50;100735.00;;;;2103961;28;20298;-52
2021/10/26 02:41:04;;;;;;;4.40;4.00;;;;;21.40;100740.00;;;;2104309;28;20268;-51
2021/10/26 02:42:04;;;;;;;5.03;4.53;;;;;21.40;100739.00;;;;2104192;28;20271;-51
2021/10/26 02:43:05;;;;;;;5.00;4.50;;;;;21.40;100733.00;;;;2104274;28;20230;-52
2021/10/26 02:44:05;;;;;;;5.37;4.70;;;;;21.40;100729.00;;;;2103952;28;20576;-51
2021/10/26 02:45:06;;;;;;;4.50;3.80;;;;;21.40;100737.00;;;;2103985;28;20207;-52
2021/10/26 02:46:07;;;;;;;4.97;4.50;;;;;21.40;100737.00;;;;2103766;28;20651;-51
2021/10/26 02:47:07;;;;;;;6.00;4.10;;;;;21.40;100735.00;;;;2096698;28;20209;-51
2021/10/26 02:48:07;;;;;;;4.97;4.20;;;;;21.40;100737.00;;;;2099704;28;20336;-51
2021/10/26 02:49:09;;;;;;;4.10;3.70;;;;;21.40;100738.00;;;;2096940;28;20214;-52
2021/10/26 02:50:09;;;;;;;4.93;4.45;;;;;21.40;100739.00;;;;2095779;28;20236;-53
2021/10/26 02:51:10;;;;;;;4.30;3.90;;;;;21.40;100744.00;;;;2095688;28;20217;-52
2021/10/26 02:52:10;;;;;;;4.80;4.27;;;;;21.40;100746.00;;;;2095869;28;20208;-52
2021/10/26 02:53:10;;;;;;;5.03;4.00;;;;;21.40;100739.00;;;;2095719;28;20216;-51
2021/10/26 02:54:11;;;;;;;4.93;4.43;;;;;21.40;100742.00;;;;2095668;28;20266;-51
2021/10/26 02:55:11;;;;;;;4.17;3.83;;;;;21.40;100743.00;;;;2095746;28;20227;-51
2021/10/26 02:56:11;;;;;;;4.63;4.03;;;;;21.40;100739.00;;;;2095611;28;20665;-52
2021/10/26 02:57:12;;;;;;;4.40;4.00;;;;;21.40;100734.00;;;;2093910;28;20223;-52
2021/10/26 02:58:12;;;;;;;4.17;3.77;;;;;21.40;100739.00;;;;2095511;28;20578;-52
2021/10/26 02:59:12;;;;;;;4.70;4.30;;;;;21.40;100743.00;;;;2096150;28;20212;-52
2021/10/26 03:00:13;;;;;;;4.30;3.90;;;;;21.40;100742.00;;;;2104171;28;20215;-52
2021/10/26 03:01:13;;;;;;;4.00;3.60;;;;;21.40;100739.00;;;;2104082;28;20223;-51
2021/10/26 03:02:14;;;;;;;4.30;3.90;;;;;21.30;100746.00;;;;2103840;28;20211;-52
2021/10/26 03:03:14;;;;;;;4.30;3.83;;;;;21.40;100740.00;;;;2103168;28;20204;-52
2021/10/26 03:04:14;;;;;;;4.30;3.87;;;;;21.40;100738.00;;;;2100020;28;20798;-51
2021/10/26 03:05:15;;;;;;;3.97;3.67;;;;;21.40;100739.00;;;;2095466;28;20632;-52
2021/10/26 03:06:16;;;;;;;4.55;4.15;;;;;21.40;100740.00;;;;2085353;28;20258;-52
2021/10/26 03:07:17;;;;;;;4.77;4.37;;;;;21.40;100741.00;;;;2094565;28;20220;-52
2021/10/26 03:08:17;;;;;;;4.77;4.20;;;;;21.40;100750.00;;;;2095563;28;20224;-52
2021/10/26 03:09:17;;;;;;;4.87;4.37;;;;;21.40;100746.00;;;;2095235;28;20508;-52
2021/10/26 03:10:18;;;;;;;4.30;3.90;;;;;21.40;100741.00;;;;2095549;28;20712;-52
2021/10/26 03:11:18;;;;;;;3.90;3.60;;;;;21.40;100740.00;;;;2095009;28;20650;-51
2021/10/26 03:12:18;;;;;;;4.77;4.20;;;;;21.40;100740.00;;;;2094999;28;20323;-52
2021/10/26 03:13:19;;;;;;;4.90;4.10;;;;;21.40;100739.00;;;;2094798;28;20743;-52
2021/10/26 03:14:19;;;;;;;5.23;3.60;;;;;21.40;100737.00;;;;2094694;28;20224;-52
2021/10/26 03:15:20;;;;;;;4.33;3.93;;;;;21.30;100740.00;;;;2095296;28;20220;-53
2021/10/26 03:16:20;;;;;;;4.43;4.03;;;;;21.30;100737.00;;;;2096870;28;20212;-52
2021/10/26 03:17:21;;;;;;;4.50;4.10;;;;;21.40;100729.00;;;;2095217;28;20216;-52
2021/10/26 03:18:21;;;;;;;4.67;4.17;;;;;21.30;100733.00;;;;2095078;28;20220;-52
2021/10/26 03:19:22;;;;;;;4.40;4.00;;;;;21.40;100730.00;;;;2094803;28;20227;-52
2021/10/26 03:20:22;;;;;;;4.33;3.93;;;;;21.40;100736.00;;;;2094596;28;20273;-52
2021/10/26 03:21:22;;;;;;;5.00;4.50;;;;;21.30;100743.00;;;;2094781;28;20693;-53
2021/10/26 03:22:23;;;;;;;4.20;3.77;;;;;21.40;100738.00;;;;2095277;28;20220;-52
2021/10/26 03:23:25;;;;;;;4.47;4.07;;;;;21.30;100730.00;;;;2095126;28;20215;-52
2021/10/26 03:24:25;;;;;;;4.00;3.60;;;;;21.30;100740.00;;;;2094611;28;20209;-52
2021/10/26 03:25:25;;;;;;;5.40;4.13;;;;;21.40;100741.00;;;;2096485;28;20684;-52
2021/10/26 03:26:26;;;;;;;4.30;3.80;;;;;21.40;100738.00;;;;2103301;28;20696;-52
2021/10/26 03:27:26;;;;;;;5.17;3.80;;;;;21.40;100738.00;;;;2100325;28;20386;-52
2021/10/26 03:28:27;;;;;;;4.47;4.07;;;;;21.40;100739.00;;;;2103239;28;20215;-52
2021/10/26 03:29:28;;;;;;;4.63;3.85;;;;;21.40;100744.00;;;;2102258;28;20247;-52
2021/10/26 03:30:29;;;;;;;4.30;3.90;;;;;21.40;100745.00;;;;2103810;28;20849;-52
2021/10/26 03:31:29;;;;;;;3.93;3.57;;;;;21.30;100740.00;;;;2098122;28;20457;-53
2021/10/26 03:32:29;;;;;;;4.00;3.60;;;;;21.30;100744.00;;;;2102997;28;20767;-51
2021/10/26 03:33:31;;;;;;;4.93;4.30;;;;;21.30;100739.00;;;;2103346;28;20203;-52
2021/10/26 03:34:31;;;;;;;4.00;3.60;;;;;21.40;100742.00;;;;2103099;28;20208;-51
2021/10/26 03:35:31;;;;;;;4.07;3.67;;;;;21.30;100748.00;;;;2103039;28;20215;-52
2021/10/26 03:36:33;;;;;;;4.43;4.03;;;;;21.30;100745.00;;;;2100060;28;20211;-52
2021/10/26 03:37:35;;;;;;;4.32;3.90;;;;;21.30;100740.00;;;;2100003;28;20240;-53
2021/10/26 03:38:37;;;;;;;4.30;3.90;;;;;21.30;100741.00;;;;2094633;28;20220;-52
2021/10/26 03:39:37;;;;;;;4.65;4.18;;;;;21.30;100747.00;;;;2094393;28;20205;-52
2021/10/26 03:40:38;;;;;;;4.20;3.80;;;;;21.30;100744.00;;;;2094636;28;20224;-52
2021/10/26 03:41:38;;;;;;;4.30;4.00;;;;;21.30;100746.00;;;;2094967;28;20208;-52
2021/10/26 03:42:39;;;;;;;4.53;4.13;;;;;21.30;100755.00;;;;2095273;28;20749;-51
2021/10/26 03:43:39;;;;;;;4.30;3.90;;;;;21.30;100743.00;;;;2094752;28;20901;-52
2021/10/26 03:44:39;;;;;;;4.80;3.80;;;;;21.30;100748.00;;;;2094524;28;20572;-52
2021/10/26 03:45:40;;;;;;;4.57;4.17;;;;;21.30;100756.00;;;;2094786;28;20226;-53
2021/10/26 03:46:40;;;;;;;4.30;3.90;;;;;21.30;100752.00;;;;2098517;28;20235;-51
2021/10/26 03:47:41;;;;;;;6.13;4.40;;;;;21.30;100742.00;;;;2095197;28;20208;-51
2021/10/26 03:48:42;;;;;;;4.03;3.60;;;;;21.30;100750.00;;;;2095168;28;20949;-53
2021/10/26 03:49:42;;;;;;;4.30;4.00;;;;;21.30;100741.00;;;;2095795;28;20454;-52
2021/10/26 03:50:42;;;;;;;6.30;3.93;;;;;21.30;100755.00;;;;2103756;28;20238;-52
2021/10/26 03:51:43;;;;;;;4.20;3.80;;;;;21.30;100751.00;;;;2103675;28;20238;-52
2021/10/26 03:52:43;;;;;;;4.57;4.17;;;;;21.30;100746.00;;;;2103827;28;20272;-52
2021/10/26 03:53:44;;;;;;;4.40;3.97;;;;;21.30;100754.00;;;;2098780;28;20696;-52
2021/10/26 03:54:44;;;;;;;4.50;4.10;;;;;21.30;100749.00;;;;2102208;28;20211;-51
2021/10/26 03:55:44;;;;;;;4.30;3.90;;;;;21.30;100753.00;;;;2102623;28;20684;-51
2021/10/26 03:56:45;;;;;;;4.50;4.10;;;;;21.30;100750.00;;;;2102935;28;20244;-52
2021/10/26 03:57:45;;;;;;;6.30;4.17;;;;;21.30;100747.00;;;;2103110;28;20688;-51
2021/10/26 03:58:45;;;;;;;4.00;3.70;;;;;21.30;100746.00;;;;2103051;28;20238;-52
2021/10/26 03:59:46;;;;;;;4.97;4.00;;;;;21.30;100755.00;;;;2102901;28;20207;-52
2021/10/26 04:00:46;;;;;;;4.37;3.97;;;;;21.30;100750.00;;;;2103230;28;20222;-52
2021/10/26 04:01:46;;;;;;;4.27;3.87;;;;;21.30;100761.00;;;;2101164;28;20296;-52
2021/10/26 04:02:49;;;;;;;4.13;3.60;;;;;21.30;100751.00;;;;2103349;28;20208;-52
2021/10/26 04:03:50;;;;;;;4.43;4.03;;;;;21.30;100759.00;;;;2103435;28;20290;-52
2021/10/26 04:04:52;;;;;;;4.93;3.72;;;;;21.30;100756.00;;;;2102800;28;20204;-51
2021/10/26 04:06:03;;;;;;;4.72;4.32;;;;;21.30;100758.00;;;;2103001;28;20223;-52
2021/10/26 04:07:07;;;;;;;4.25;3.83;;;;;21.30;100753.00;;;;2100033;28;20214;-52
2021/10/26 04:08:57;;;;;;;4.57;3.45;;;;;21.30;100759.00;;;;2094465;28;20215;-52
2021/10/26 04:10:50;;;;;;;4.32;3.60;;;;;21.30;100763.00;;;;2098419;28;20602;-51
2021/10/26 04:11:54;;;;;;;4.20;3.78;;;;;21.20;100762.00;;;;2102564;28;20265;-52
2021/10/26 04:12:55;;;;;;;4.25;3.80;;;;;21.20;100765.00;;;;2094525;28;20212;-52
2021/10/26 04:13:55;;;;;;;4.70;4.30;;;;;21.30;100766.00;;;;2102312;28;20220;-52
2021/10/26 04:14:56;;;;;;;4.00;3.60;;;;;21.20;100764.00;;;;2103107;28;20390;-51
2021/10/26 04:15:56;;;;;;;4.23;3.83;;;;;21.20;100771.00;;;;2102937;28;20208;-52
2021/10/26 04:16:57;;;;;;;4.50;4.10;;;;;21.20;100771.00;;;;2096240;28;20520;-51
2021/10/26 04:17:57;;;;;;;4.27;3.87;;;;;21.20;100768.00;;;;2094714;28;20320;-51
2021/10/26 04:18:57;;;;;;;3.70;3.40;;;;;21.30;100769.00;;;;2094117;28;20212;-52
2021/10/26 04:19:59;;;;;;;4.33;3.93;;;;;21.30;100763.00;;;;2094299;28;20287;-52
2021/10/26 04:20:59;;;;;;;4.35;3.95;;;;;21.20;100772.00;;;;2094757;28;20216;-53
2021/10/26 04:22:00;;;;;;;4.20;3.80;;;;;21.20;100770.00;;;;2094985;28;20291;-51
2021/10/26 04:23:00;;;;;;;4.50;4.07;;;;;21.20;100772.00;;;;2094820;28;20588;-52
2021/10/26 04:24:01;;;;;;;4.30;3.90;;;;;21.20;100776.00;;;;2094641;28;20228;-52
2021/10/26 04:25:01;;;;;;;4.97;3.90;;;;;21.20;100771.00;;;;2094545;28;20212;-53
2021/10/26 04:26:03;;;;;;;6.33;4.27;;;;;21.20;100776.00;;;;2094556;28;20344;-51
2021/10/26 04:27:03;;;;;;;4.38;3.97;;;;;21.20;100777.00;;;;2094921;28;20307;-51
2021/10/26 04:28:04;;;;;;;4.20;3.87;;;;;21.20;100779.00;;;;2096791;28;20580;-53
2021/10/26 04:29:04;;;;;;;5.00;4.50;;;;;21.20;100780.00;;;;2100728;28;20367;-52
2021/10/26 04:30:05;;;;;;;4.13;3.70;;;;;21.20;100781.00;;;;2104723;28;20446;-51
2021/10/26 04:31:06;;;;;;;4.70;4.30;;;;;21.20;100783.00;;;;2104928;28;20242;-52
2021/10/26 04:32:07;;;;;;;4.70;4.30;;;;;21.20;100785.00;;;;2105480;28;20203;-54
2021/10/26 04:33:08;;;;;;;5.13;4.03;;;;;21.20;100782.00;;;;2104930;28;20229;-53
2021/10/26 04:34:08;;;;;;;4.10;3.60;;;;;21.20;100780.00;;;;2105008;28;20220;-52
2021/10/26 04:35:09;;;;;;;4.80;4.30;;;;;21.20;100783.00;;;;2104879;28;20215;-52
2021/10/26 04:36:09;;;;;;;4.87;3.67;;;;;21.20;100785.00;;;;2104946;28;20203;-51
2021/10/26 04:37:10;;;;;;;4.63;3.90;;;;;21.20;100780.00;;;;2105115;28;20442;-51
2021/10/26 04:38:10;;;;;;;5.97;4.80;;;;;21.20;100792.00;;;;2105183;28;20215;-53
2021/10/26 04:39:10;;;;;;;4.40;4.00;;;;;21.20;100790.00;;;;2104638;28;20319;-52
2021/10/26 04:40:11;;;;;;;4.90;3.93;;;;;21.20;100786.00;;;;2104923;28;20563;-51
2021/10/26 04:41:12;;;;;;;4.47;3.63;;;;;21.20;100789.00;;;;2104139;28;20828;-51
2021/10/26 04:42:12;;;;;;;4.50;3.63;;;;;21.20;100793.00;;;;2103607;28;20449;-52
2021/10/26 04:43:13;;;;;;;5.00;4.57;;;;;21.20;100790.00;;;;2105172;28;20203;-52
2021/10/26 04:44:14;;;;;;;4.68;4.28;;;;;21.20;100784.00;;;;2105032;28;20696;-51
2021/10/26 04:45:14;;;;;;;4.10;3.50;;;;;21.20;100786.00;;;;2105277;28;20216;-52
2021/10/26 04:46:14;;;;;;;5.47;4.43;;;;;21.20;100794.00;;;;2104586;28;20208;-52
2021/10/26 04:47:16;;;;;;;4.70;4.10;;;;;21.20;100794.00;;;;2096592;28;20208;-51
2021/10/26 04:48:16;;;;;;;5.32;4.30;;;;;21.20;100788.00;;;;2097535;28;21012;-51
2021/10/26 04:49:16;;;;;;;4.90;4.40;;;;;21.20;100793.00;;;;2095959;28;20216;-51
2021/10/26 04:50:17;;;;;;;5.77;4.50;;;;;21.10;100800.00;;;;2096924;28;20708;-52
2021/10/26 04:51:18;;;;;;;4.50;4.10;;;;;21.20;100797.00;;;;2096815;28;20277;-52
2021/10/26 04:52:18;;;;;;;4.40;4.00;;;;;21.20;100795.00;;;;2096473;28;20848;-51
2021/10/26 04:53:20;;;;;;;4.97;3.70;;;;;21.20;100796.00;;;;2096804;28;20307;-52
2021/10/26 04:54:20;;;;;;;4.90;4.30;;;;;21.20;100795.00;;;;2101176;28;20233;-52
2021/10/26 04:55:20;;;;;;;4.70;4.27;;;;;21.20;100782.00;;;;2105066;28;20204;-53
2021/10/26 04:56:21;;;;;;;3.90;3.50;;;;;21.20;100791.00;;;;2104867;28;20219;-53
2021/10/26 04:57:21;;;;;;;4.33;3.93;;;;;21.20;100797.00;;;;2104936;28;20305;-52
2021/10/26 04:58:21;;;;;;;5.10;4.60;;;;;21.20;100801.00;;;;2105062;28;20226;-52
2021/10/26 04:59:22;;;;;;;5.57;4.23;;;;;21.20;100795.00;;;;2104426;28;20293;-52
2021/10/26 05:00:22;;;;;;;4.40;4.00;;;;;21.20;100794.00;;;;2104866;28;20298;-53